Terminal Aerodrome Forecast
Issued by NWS Norman, OK

Home | Current Version | Previous Version | Text Only | Print | Product List | Glossary On
Versions: 1 2 3 4 5 6 7 8 9 10 11 12 13 14
000
FTUS44 KOUN 201120
TAFSPS
TAF
KSPS 201120Z 2012/2112 09007KT P6SM SCT250
     FM201500 12018G26KT P6SM BKN150 BKN250
     FM210000 13013KT P6SM OVC080 PROB30 2105/2109 -RA OVC040=

USA.gov is the U.S. government's official web portal to all federal, state and local government web resources and services.